メインページ
METAR-TAF:

METAR-TAF

空港 :

Friday Harbor Airport

Friday Harbor, ワシントン, アメリカ合衆国

緯度: 48-31-13N, 経度: 123-01-31W, 海抜: 33m

現時点の気象観測

当レポートは17分前の17:53(UTC)に作成
南東の風 8kt
気温 11°C
湿度 94%
気圧 1017 hPa
視程: 8.0km
高度700ftの曇り

METAR: KFHR 171753Z AUTO 14008KT 5SM BR OVC007 11/10 A3004 RMK AO2 RAB26E35 SLP172 P0000 60015 T01060100 10106 20089 53006 $

時間: 10:10 (18:10 UTC)


TAF: 見つかりません

4,000以上の空港の気象観測と天気予報(METAR報とTAF報)

利用可能な観測所は地図上に黄色い丸と赤い丸で示す。

丸の上にカーソルを重ねると観測所名を参照できる。

次にクリックすると気象観測と天気予報を参照できる。

マップの切り替え:黒色「×」印の緑ボタンをクリックして拡大、「-」印の緑ボタンをクリックして縮小、緑色の三角印をクリックして隣りの地図に切り替え


METAR-TAF: